createdAt,value
2023-02-22T00:01:44.571Z,97.67
2023-02-22T00:05:47.391Z,97.93
2023-02-22T00:09:49.010Z,98.40
2023-02-22T00:13:50.536Z,98.30
2023-02-22T00:17:51.928Z,98.58
2023-02-22T00:21:54.748Z,98.54
2023-02-22T00:25:58.047Z,98.66
2023-02-22T00:29:59.440Z,98.62
2023-02-22T00:34:00.812Z,98.82
2023-02-22T00:38:04.287Z,98.73
2023-02-22T00:42:05.747Z,98.97
2023-02-22T00:46:07.175Z,99.20
2023-02-22T00:50:09.479Z,99.24
2023-02-22T00:54:12.195Z,99.63
2023-02-22T00:58:13.598Z,99.70
2023-02-22T01:02:15.369Z,99.66
2023-02-22T01:06:16.763Z,100.00
2023-02-22T01:10:21.389Z,100.00
2023-02-22T01:14:23.862Z,100.00
2023-02-22T01:18:25.545Z,100.00
2023-02-22T01:22:26.953Z,100.00
2023-02-22T01:26:29.678Z,100.00
2023-02-22T01:30:33.284Z,100.00
2023-02-22T01:34:34.976Z,100.00
2023-02-22T01:38:36.386Z,100.00
2023-02-22T01:42:39.096Z,100.00
2023-02-22T01:46:40.487Z,100.00
2023-02-22T01:50:47.049Z,100.00
2023-02-22T01:54:52.166Z,100.00
2023-02-22T01:58:59.293Z,100.00
2023-02-22T02:03:11.062Z,100.00
2023-02-22T02:07:16.818Z,100.00
2023-02-22T02:11:21.782Z,100.00
2023-02-22T02:15:28.035Z,100.00
2023-02-22T02:19:41.596Z,100.00
2023-02-22T02:24:11.763Z,100.00
2023-02-22T02:28:34.815Z,100.00
2023-02-22T02:32:48.985Z,100.00
2023-02-22T02:37:00.037Z,100.00
2023-02-22T02:41:07.143Z,100.00
2023-02-22T02:45:12.043Z,100.00
2023-02-22T02:49:19.626Z,100.00
2023-02-22T02:53:25.441Z,100.00
2023-02-22T02:57:26.828Z,100.00
2023-02-22T03:01:53.623Z,100.00
2023-02-22T03:06:12.010Z,100.00
2023-02-22T03:10:26.558Z,100.00
2023-02-22T03:14:38.242Z,100.00
2023-02-22T03:18:50.026Z,100.00
2023-02-22T03:22:57.887Z,100.00
2023-02-22T03:27:03.841Z,100.00
2023-02-22T03:31:12.567Z,100.00
2023-02-22T03:35:18.922Z,100.00
2023-02-22T03:39:26.043Z,100.00
2023-02-22T03:43:30.857Z,100.00
2023-02-22T03:47:37.904Z,100.00
2023-02-22T03:51:39.641Z,100.00
2023-02-22T03:55:42.406Z,100.00
2023-02-22T03:59:44.585Z,100.00
2023-02-22T04:03:45.992Z,100.00
2023-02-22T04:07:47.482Z,100.00
2023-02-22T04:11:50.179Z,100.00
2023-02-22T04:15:51.531Z,100.00
2023-02-22T04:19:53.160Z,100.00
2023-02-22T04:23:55.034Z,100.00
2023-02-22T04:27:57.729Z,100.00
2023-02-22T04:31:59.275Z,100.00
2023-02-22T04:36:00.663Z,100.00
2023-02-22T04:40:02.233Z,100.00
2023-02-22T04:44:05.216Z,100.00
2023-02-22T04:48:06.605Z,100.00
2023-02-22T04:52:08.050Z,100.00
2023-02-22T04:56:09.416Z,100.00
2023-02-22T05:00:16.629Z,100.00
2023-02-22T05:04:17.974Z,100.00
2023-02-22T05:08:19.601Z,100.00
2023-02-22T05:12:20.980Z,99.75
2023-02-22T05:16:23.823Z,99.66
2023-02-22T05:20:29.190Z,99.56
2023-02-22T05:24:30.527Z,100.00
2023-02-22T05:28:32.279Z,100.00
2023-02-22T05:32:35.094Z,100.00
2023-02-22T05:36:36.473Z,100.00
2023-02-22T05:40:37.873Z,100.00
2023-02-22T05:44:39.237Z,99.80
2023-02-22T05:48:41.993Z,100.00
2023-02-22T05:52:43.630Z,99.72
2023-02-22T06:12:09.467Z,100.00
2023-02-22T06:16:10.911Z,100.00
2023-02-22T06:20:14.547Z,100.00
2023-02-22T06:24:15.934Z,100.00
2023-02-22T06:28:19.081Z,100.00
2023-02-22T06:32:20.489Z,100.00
2023-02-22T06:36:21.974Z,100.00
2023-02-22T06:40:23.510Z,100.00
2023-02-22T06:44:26.266Z,100.00
2023-02-22T06:48:27.655Z,100.00
2023-02-22T06:52:29.043Z,100.00
2023-02-22T06:56:32.870Z,99.75
2023-02-22T07:00:35.809Z,99.42
2023-02-22T07:04:37.643Z,98.64
2023-02-22T07:08:39.046Z,97.71
2023-02-22T07:12:40.415Z,97.65
2023-02-22T07:16:43.186Z,97.47
2023-02-22T07:20:44.946Z,97.05
2023-02-22T07:24:47.192Z,97.00
2023-02-22T07:28:49.344Z,96.74
2023-02-22T07:32:53.323Z,96.53
2023-02-22T07:36:54.740Z,96.38
2023-02-22T07:40:56.107Z,96.04
2023-02-22T07:44:57.754Z,95.56
2023-02-22T07:49:00.510Z,94.83
2023-02-22T07:53:05.096Z,94.82
2023-02-22T07:57:06.508Z,94.32
2023-02-22T08:01:08.047Z,93.85
2023-02-22T08:05:11.510Z,94.21
2023-02-22T08:09:12.883Z,93.42
2023-02-22T08:13:14.529Z,93.11
2023-02-22T08:17:16.080Z,92.61
2023-02-22T08:21:19.295Z,92.04
2023-02-22T08:25:24.184Z,90.80
2023-02-22T08:29:25.782Z,90.94
2023-02-22T08:33:27.364Z,91.45
2023-02-22T08:37:30.177Z,91.92
2023-02-22T08:41:31.695Z,91.42
2023-02-22T08:45:33.253Z,90.92
2023-02-22T08:49:34.650Z,90.75
2023-02-22T08:53:37.352Z,89.55
2023-02-22T08:57:38.759Z,87.94
2023-02-22T09:01:40.298Z,87.92
2023-02-22T09:05:42.946Z,87.29
2023-02-22T09:09:45.676Z,87.25
2023-02-22T09:13:47.236Z,86.16
2023-02-22T09:17:48.832Z,85.11
2023-02-22T09:21:53.366Z,84.83
2023-02-22T09:25:56.726Z,83.60
2023-02-22T09:29:58.130Z,83.59
2023-02-22T09:34:02.671Z,79.50
2023-02-22T09:38:05.418Z,80.45
2023-02-22T09:42:12.919Z,78.96
2023-02-22T09:46:27.817Z,76.98
2023-02-22T09:50:33.936Z,74.73
2023-02-22T09:54:40.350Z,75.79
2023-02-22T09:58:46.089Z,75.52
2023-02-22T10:02:53.324Z,75.21
2023-02-22T10:07:02.959Z,74.15
2023-02-22T10:11:17.221Z,73.99
2023-02-22T10:15:36.556Z,72.75
2023-02-22T10:19:45.661Z,72.26
2023-02-22T10:23:52.927Z,72.45
2023-02-22T10:27:57.479Z,72.74
2023-02-22T10:32:03.920Z,71.01
2023-02-22T10:36:06.068Z,69.87
2023-02-22T10:40:15.198Z,68.97
2023-02-22T10:44:16.579Z,66.84
2023-02-22T10:48:21.457Z,66.03
2023-02-22T10:52:27.810Z,64.77
2023-02-22T10:56:29.196Z,62.80
2023-02-22T11:00:33.540Z,59.65
2023-02-22T11:04:47.339Z,59.02
2023-02-22T11:08:48.746Z,58.73
2023-02-22T11:12:50.357Z,59.07
2023-02-22T11:16:53.741Z,58.03
2023-02-22T11:21:08.540Z,56.55
2023-02-22T11:25:19.812Z,55.14
2023-02-22T11:29:25.657Z,53.83
2023-02-22T11:33:27.492Z,53.65
2023-02-22T11:37:34.135Z,52.52
2023-02-22T11:41:35.566Z,52.65
2023-02-22T11:45:38.575Z,51.21
2023-02-22T11:49:44.226Z,50.52
2023-02-22T11:54:02.319Z,49.73
2023-02-22T11:58:20.842Z,50.45
2023-02-22T12:02:56.729Z,50.51
2023-02-22T12:07:14.440Z,49.57
2023-02-22T12:11:22.617Z,48.78
2023-02-22T12:15:28.819Z,50.27
2023-02-22T12:19:33.735Z,49.71
2023-02-22T12:23:44.100Z,49.09
2023-02-22T12:27:51.601Z,48.11
2023-02-22T12:32:00.922Z,46.53
2023-02-22T12:36:03.148Z,47.68
2023-02-22T12:40:14.329Z,46.80
2023-02-22T12:44:22.051Z,48.60
2023-02-22T12:48:35.563Z,47.57
2023-02-22T12:52:45.496Z,45.28
2023-02-22T12:56:55.327Z,50.08
2023-02-22T13:01:04.647Z,52.47
2023-02-22T13:05:16.936Z,51.87
2023-02-22T13:09:48.725Z,52.55
2023-02-22T13:14:06.798Z,53.12
2023-02-22T13:18:19.056Z,52.45
2023-02-22T13:22:26.578Z,52.04
2023-02-22T13:26:33.562Z,51.16
2023-02-22T13:30:38.847Z,51.44
2023-02-22T13:35:00.380Z,50.83
2023-02-22T13:39:18.236Z,49.92
2023-02-22T13:43:37.523Z,52.04
2023-02-22T13:48:08.195Z,52.07
2023-02-22T13:52:14.006Z,51.51
2023-02-22T13:56:16.376Z,54.67
2023-02-22T14:00:21.303Z,50.58
2023-02-22T14:04:37.684Z,51.18
2023-02-22T14:08:47.059Z,50.29
2023-02-22T14:12:49.539Z,50.65
2023-02-22T14:17:23.705Z,51.90
2023-02-22T14:21:25.185Z,50.23
2023-02-22T14:25:37.849Z,49.45
2023-02-22T14:29:50.022Z,50.35
2023-02-22T14:34:02.041Z,49.74
2023-02-22T14:38:06.764Z,50.76
2023-02-22T14:42:16.037Z,51.75
2023-02-22T14:46:22.678Z,53.54
2023-02-22T14:50:32.736Z,52.82
2023-02-22T14:54:44.814Z,54.56
2023-02-22T14:58:53.566Z,55.36
2023-02-22T15:02:57.795Z,54.69
2023-02-22T15:07:07.632Z,55.97
2023-02-22T15:15:41.480Z,54.30
2023-02-22T15:19:43.113Z,55.34
2023-02-22T15:23:47.550Z,55.07
2023-02-22T15:27:49.349Z,55.97
2023-02-22T15:31:53.244Z,56.65
2023-02-22T15:35:57.505Z,56.66
2023-02-22T15:40:06.697Z,55.15
2023-02-22T15:44:22.773Z,56.00
2023-02-22T15:48:27.337Z,57.04
2023-02-22T15:52:29.229Z,58.05
2023-02-22T15:56:32.752Z,59.53
2023-02-22T16:00:37.445Z,61.09
2023-02-22T16:04:42.172Z,59.27
2023-02-22T16:08:55.180Z,60.94
2023-02-22T16:13:09.118Z,61.53
2023-02-22T16:17:13.683Z,60.06
2023-02-22T16:21:18.751Z,62.74
2023-02-22T16:25:26.934Z,62.11
2023-02-22T16:29:28.454Z,62.40
2023-02-22T16:33:29.963Z,63.87
2023-02-22T16:37:32.786Z,63.32
2023-02-22T16:41:34.320Z,63.71
2023-02-22T16:45:35.711Z,63.94
2023-02-22T16:49:38.146Z,65.87
2023-02-22T16:53:41.384Z,65.16
2023-02-22T16:57:44.676Z,63.85
2023-02-22T17:01:47.531Z,65.84
2023-02-22T17:05:49.270Z,64.90
2023-02-22T17:09:52.086Z,65.88
2023-02-22T17:13:53.475Z,66.96
2023-02-22T17:17:56.121Z,67.21
2023-02-22T17:21:59.638Z,66.52
2023-02-22T17:26:03.314Z,68.38
2023-02-22T17:30:05.626Z,68.60
2023-02-22T17:34:07.599Z,68.33
2023-02-22T17:38:09.121Z,68.57
2023-02-22T17:42:12.107Z,69.12
2023-02-22T17:46:13.683Z,69.55
2023-02-22T17:50:15.405Z,70.37
2023-02-22T17:54:17.594Z,70.61
2023-02-22T17:58:20.454Z,71.63
2023-02-22T18:02:21.942Z,72.03
2023-02-22T18:06:25.497Z,71.83
2023-02-22T18:10:27.452Z,72.67
2023-02-22T18:14:30.274Z,74.38
2023-02-22T18:18:32.376Z,73.21
2023-02-22T18:22:33.774Z,75.43
2023-02-22T18:26:35.286Z,75.58
2023-02-22T18:30:38.436Z,76.33
2023-02-22T18:34:39.930Z,77.06
2023-02-22T18:38:42.413Z,76.96
2023-02-22T18:42:43.793Z,77.27
2023-02-22T18:46:46.537Z,77.44
2023-02-22T18:50:47.923Z,76.70
2023-02-22T18:54:50.018Z,77.39
2023-02-22T18:58:52.992Z,77.11
2023-02-22T19:02:55.832Z,77.20
2023-02-22T19:06:57.274Z,77.37
2023-02-22T19:11:02.727Z,77.49
2023-02-22T19:15:04.704Z,76.85
2023-02-22T19:19:07.669Z,76.92
2023-02-22T19:23:09.281Z,78.65
2023-02-22T19:27:11.441Z,77.60
2023-02-22T19:31:14.548Z,77.52
2023-02-22T19:35:17.740Z,77.93
2023-02-22T19:39:20.353Z,78.24
2023-02-22T19:43:21.802Z,78.72
2023-02-22T19:47:23.269Z,77.19
2023-02-22T19:51:27.937Z,76.90
2023-02-22T19:55:29.661Z,77.54
2023-02-22T19:59:31.116Z,78.95
2023-02-22T20:03:32.570Z,77.90
2023-02-22T20:07:35.683Z,78.98
2023-02-22T20:11:37.087Z,79.52
2023-02-22T20:15:38.566Z,79.57
2023-02-22T20:19:39.957Z,80.21
2023-02-22T20:23:42.862Z,80.91
2023-02-22T20:27:44.981Z,81.17
2023-02-22T20:31:46.443Z,80.86
2023-02-22T20:35:48.025Z,81.32
2023-02-22T20:39:51.639Z,82.03
2023-02-22T20:43:55.047Z,82.21
2023-02-22T20:47:56.477Z,82.84
2023-02-22T20:51:58.299Z,83.74
2023-02-22T20:56:01.596Z,83.85
2023-02-22T21:00:03.872Z,84.48
2023-02-22T21:04:07.711Z,85.11
2023-02-22T21:08:09.260Z,85.76
2023-02-22T21:12:12.081Z,86.00
2023-02-22T21:16:17.352Z,86.37
2023-02-22T21:20:21.008Z,86.87
2023-02-22T21:24:22.469Z,87.33
2023-02-22T21:28:29.793Z,87.50
2023-02-22T21:32:33.997Z,88.09
2023-02-22T21:36:35.446Z,89.48
2023-02-22T21:40:36.806Z,90.29
2023-02-22T21:44:39.735Z,90.75
2023-02-22T21:48:43.277Z,90.94
2023-02-22T21:52:45.100Z,91.03
2023-02-22T21:56:46.509Z,91.09
2023-02-22T22:00:49.256Z,90.75
2023-02-22T22:04:50.678Z,90.82
2023-02-22T22:08:52.066Z,91.59
2023-02-22T22:12:53.524Z,91.54
2023-02-22T22:16:57.570Z,91.66
2023-02-22T22:20:58.976Z,92.68
2023-02-22T22:25:00.371Z,93.16
2023-02-22T22:29:01.757Z,93.28
2023-02-22T22:33:05.119Z,93.19
2023-02-22T22:37:06.533Z,93.22
2023-02-22T22:41:10.467Z,93.77
2023-02-22T22:45:13.019Z,93.92
2023-02-22T22:49:16.617Z,94.57
2023-02-22T22:53:17.984Z,94.37
2023-02-22T22:57:19.385Z,93.48
2023-02-22T23:01:23.251Z,93.46
2023-02-22T23:05:27.674Z,94.37
2023-02-22T23:09:30.478Z,94.46
2023-02-22T23:13:31.927Z,94.34
2023-02-22T23:17:33.423Z,93.97
2023-02-22T23:21:36.709Z,93.52
2023-02-22T23:25:38.047Z,93.12
2023-02-22T23:29:42.436Z,93.22
2023-02-22T23:33:45.407Z,92.96
2023-02-22T23:37:51.104Z,93.78
2023-02-22T23:41:53.682Z,93.74
2023-02-22T23:45:55.168Z,94.77
2023-02-22T23:49:56.584Z,94.36
2023-02-22T23:53:59.247Z,94.50
2023-02-22T23:58:00.733Z,93.96
